sensor_id;sensor_type;location;lat;lon;timestamp;temperature;humidity
20845;DHT22;10583;49.084;8.646;2023-03-23T00:00:51;13.10;99.90
20845;DHT22;10583;49.084;8.646;2023-03-23T00:03:19;13.00;99.90
20845;DHT22;10583;49.084;8.646;2023-03-23T00:05:46;12.90;99.90
20845;DHT22;10583;49.084;8.646;2023-03-23T00:08:16;12.80;99.90
20845;DHT22;10583;49.084;8.646;2023-03-23T00:10:44;12.80;99.90
20845;DHT22;10583;49.084;8.646;2023-03-23T00:13:11;12.90;99.90
20845;DHT22;10583;49.084;8.646;2023-03-23T00:15:38;12.80;99.90
20845;DHT22;10583;49.084;8.646;2023-03-23T00:18:06;12.80;99.90
20845;DHT22;10583;49.084;8.646;2023-03-23T00:20:33;12.80;99.90
20845;DHT22;10583;49.084;8.646;2023-03-23T00:23:06;12.80;99.90
20845;DHT22;10583;49.084;8.646;2023-03-23T00:25:33;12.80;99.90
20845;DHT22;10583;49.084;8.646;2023-03-23T00:28:01;12.60;99.90
20845;DHT22;10583;49.084;8.646;2023-03-23T00:30:28;12.50;99.90
20845;DHT22;10583;49.084;8.646;2023-03-23T00:32:55;12.40;99.90
20845;DHT22;10583;49.084;8.646;2023-03-23T00:35:23;12.40;99.90
20845;DHT22;10583;49.084;8.646;2023-03-23T00:37:50;12.40;99.90
20845;DHT22;10583;49.084;8.646;2023-03-23T00:40:17;12.50;99.90
20845;DHT22;10583;49.084;8.646;2023-03-23T00:42:44;12.40;99.90
20845;DHT22;10583;49.084;8.646;2023-03-23T00:45:12;12.40;99.90
20845;DHT22;10583;49.084;8.646;2023-03-23T00:47:40;12.40;99.90
20845;DHT22;10583;49.084;8.646;2023-03-23T00:50:12;12.40;99.90
20845;DHT22;10583;49.084;8.646;2023-03-23T00:52:40;12.40;99.90
20845;DHT22;10583;49.084;8.646;2023-03-23T00:55:07;12.50;99.90
20845;DHT22;10583;49.084;8.646;2023-03-23T00:57:34;12.50;99.90
20845;DHT22;10583;49.084;8.646;2023-03-23T01:00:01;12.50;99.90
20845;DHT22;10583;49.084;8.646;2023-03-23T01:02:31;12.50;99.90
20845;DHT22;10583;49.084;8.646;2023-03-23T01:04:58;12.50;99.90
20845;DHT22;10583;49.084;8.646;2023-03-23T01:07:25;12.50;99.90
20845;DHT22;10583;49.084;8.646;2023-03-23T01:09:53;12.50;99.90
20845;DHT22;10583;49.084;8.646;2023-03-23T01:12:20;12.40;99.90
20845;DHT22;10583;49.084;8.646;2023-03-23T01:14:49;12.30;99.90
20845;DHT22;10583;49.084;8.646;2023-03-23T01:17:16;12.20;99.90
20845;DHT22;10583;49.084;8.646;2023-03-23T01:19:45;12.10;99.90
20845;DHT22;10583;49.084;8.646;2023-03-23T01:22:12;12.00;99.90
20845;DHT22;10583;49.084;8.646;2023-03-23T01:24:39;11.90;99.90
20845;DHT22;10583;49.084;8.646;2023-03-23T01:27:06;11.90;99.90
20845;DHT22;10583;49.084;8.646;2023-03-23T01:29:33;11.90;99.90
20845;DHT22;10583;49.084;8.646;2023-03-23T01:31:59;11.90;99.90
20845;DHT22;10583;49.084;8.646;2023-03-23T01:34:26;11.80;99.90
20845;DHT22;10583;49.084;8.646;2023-03-23T01:36:55;11.80;99.90
20845;DHT22;10583;49.084;8.646;2023-03-23T01:39:21;11.70;99.90
20845;DHT22;10583;49.084;8.646;2023-03-23T01:41:48;11.70;99.90
20845;DHT22;10583;49.084;8.646;2023-03-23T01:47:22;11.60;99.90
20845;DHT22;10583;49.084;8.646;2023-03-23T01:49:52;11.50;99.90
20845;DHT22;10583;49.084;8.646;2023-03-23T01:52:23;11.50;99.90
20845;DHT22;10583;49.084;8.646;2023-03-23T01:54:53;11.60;99.90
20845;DHT22;10583;49.084;8.646;2023-03-23T01:57:24;11.70;99.90
20845;DHT22;10583;49.084;8.646;2023-03-23T01:59:55;11.70;99.90
20845;DHT22;10583;49.084;8.646;2023-03-23T02:02:26;11.70;99.90
20845;DHT22;10583;49.084;8.646;2023-03-23T02:04:56;11.70;99.90
20845;DHT22;10583;49.084;8.646;2023-03-23T02:07:26;11.70;99.90
20845;DHT22;10583;49.084;8.646;2023-03-23T02:09:53;11.70;99.90
20845;DHT22;10583;49.084;8.646;2023-03-23T02:12:20;11.80;99.90
20845;DHT22;10583;49.084;8.646;2023-03-23T02:14:47;11.90;99.90
20845;DHT22;10583;49.084;8.646;2023-03-23T02:17:20;12.00;99.90
20845;DHT22;10583;49.084;8.646;2023-03-23T02:20:01;12.10;99.90
20845;DHT22;10583;49.084;8.646;2023-03-23T02:22:56;12.20;99.90
20845;DHT22;10583;49.084;8.646;2023-03-23T02:25:38;12.20;99.90
20845;DHT22;10583;49.084;8.646;2023-03-23T02:28:22;12.10;99.90
20845;DHT22;10583;49.084;8.646;2023-03-23T02:31:17;12.00;99.90
20845;DHT22;10583;49.084;8.646;2023-03-23T02:33:51;12.00;99.90
20845;DHT22;10583;49.084;8.646;2023-03-23T02:36:23;12.10;99.90
20845;DHT22;10583;49.084;8.646;2023-03-23T02:38:58;12.10;99.90
20845;DHT22;10583;49.084;8.646;2023-03-23T02:41:28;12.10;99.90
20845;DHT22;10583;49.084;8.646;2023-03-23T02:43:58;12.00;99.90
20845;DHT22;10583;49.084;8.646;2023-03-23T02:46:26;12.00;99.90
20845;DHT22;10583;49.084;8.646;2023-03-23T02:48:55;12.00;99.90
20845;DHT22;10583;49.084;8.646;2023-03-23T02:51:24;12.00;99.90
20845;DHT22;10583;49.084;8.646;2023-03-23T02:53:53;12.00;99.90
20845;DHT22;10583;49.084;8.646;2023-03-23T02:56:22;12.00;99.90
20845;DHT22;10583;49.084;8.646;2023-03-23T02:58:49;12.00;99.90
20845;DHT22;10583;49.084;8.646;2023-03-23T03:04:17;12.00;99.90
20845;DHT22;10583;49.084;8.646;2023-03-23T03:06:53;12.10;99.90
20845;DHT22;10583;49.084;8.646;2023-03-23T03:09:28;12.10;99.90
20845;DHT22;10583;49.084;8.646;2023-03-23T03:12:02;12.10;99.90
20845;DHT22;10583;49.084;8.646;2023-03-23T03:14:34;12.10;99.90
20845;DHT22;10583;49.084;8.646;2023-03-23T03:17:06;12.10;99.90
20845;DHT22;10583;49.084;8.646;2023-03-23T03:19:38;12.10;99.90
20845;DHT22;10583;49.084;8.646;2023-03-23T03:22:06;12.10;99.90
20845;DHT22;10583;49.084;8.646;2023-03-23T03:24:35;12.00;99.90
20845;DHT22;10583;49.084;8.646;2023-03-23T03:27:04;12.00;99.90
20845;DHT22;10583;49.084;8.646;2023-03-23T03:29:34;12.00;99.90
20845;DHT22;10583;49.084;8.646;2023-03-23T03:32:04;12.00;99.90
20845;DHT22;10583;49.084;8.646;2023-03-23T03:34:35;12.20;99.90
20845;DHT22;10583;49.084;8.646;2023-03-23T03:37:01;12.30;99.90
20845;DHT22;10583;49.084;8.646;2023-03-23T03:39:30;12.40;99.90
20845;DHT22;10583;49.084;8.646;2023-03-23T03:42:00;12.30;99.90
20845;DHT22;10583;49.084;8.646;2023-03-23T03:44:27;12.30;99.90
20845;DHT22;10583;49.084;8.646;2023-03-23T03:46:54;12.20;99.90
20845;DHT22;10583;49.084;8.646;2023-03-23T03:49:21;12.20;99.90
20845;DHT22;10583;49.084;8.646;2023-03-23T03:51:49;12.20;99.90
20845;DHT22;10583;49.084;8.646;2023-03-23T03:54:16;12.20;99.90
20845;DHT22;10583;49.084;8.646;2023-03-23T03:56:43;12.20;99.90
20845;DHT22;10583;49.084;8.646;2023-03-23T03:59:11;12.30;99.90
20845;DHT22;10583;49.084;8.646;2023-03-23T04:01:38;12.30;99.90
20845;DHT22;10583;49.084;8.646;2023-03-23T04:04:05;12.40;99.90
20845;DHT22;10583;49.084;8.646;2023-03-23T04:06:32;12.40;99.90
20845;DHT22;10583;49.084;8.646;2023-03-23T04:09:03;12.40;99.90
20845;DHT22;10583;49.084;8.646;2023-03-23T04:11:32;12.40;99.90
20845;DHT22;10583;49.084;8.646;2023-03-23T04:13:59;12.30;99.90
20845;DHT22;10583;49.084;8.646;2023-03-23T04:16:25;12.40;99.90
20845;DHT22;10583;49.084;8.646;2023-03-23T04:18:55;12.40;99.90
20845;DHT22;10583;49.084;8.646;2023-03-23T04:21:22;12.40;99.90
20845;DHT22;10583;49.084;8.646;2023-03-23T04:23:49;12.40;99.90
20845;DHT22;10583;49.084;8.646;2023-03-23T04:26:17;12.50;99.90
20845;DHT22;10583;49.084;8.646;2023-03-23T04:28:44;12.70;99.90
20845;DHT22;10583;49.084;8.646;2023-03-23T04:31:11;13.00;99.90
20845;DHT22;10583;49.084;8.646;2023-03-23T04:33:38;13.20;99.90
20845;DHT22;10583;49.084;8.646;2023-03-23T04:36:06;13.50;99.90
20845;DHT22;10583;49.084;8.646;2023-03-23T04:38:33;13.80;99.90
20845;DHT22;10583;49.084;8.646;2023-03-23T04:41:00;14.10;99.90
20845;DHT22;10583;49.084;8.646;2023-03-23T04:43:28;14.30;99.90
20845;DHT22;10583;49.084;8.646;2023-03-23T04:45:58;14.30;99.90
20845;DHT22;10583;49.084;8.646;2023-03-23T04:48:29;14.40;99.90
20845;DHT22;10583;49.084;8.646;2023-03-23T04:50:58;14.40;99.90
20845;DHT22;10583;49.084;8.646;2023-03-23T04:53:28;14.30;99.90
20845;DHT22;10583;49.084;8.646;2023-03-23T04:55:55;14.50;99.90
20845;DHT22;10583;49.084;8.646;2023-03-23T04:58:22;14.70;99.90
20845;DHT22;10583;49.084;8.646;2023-03-23T05:00:51;14.80;99.90
20845;DHT22;10583;49.084;8.646;2023-03-23T05:03:18;14.80;99.90
20845;DHT22;10583;49.084;8.646;2023-03-23T05:05:46;15.00;99.90
20845;DHT22;10583;49.084;8.646;2023-03-23T05:08:17;15.10;99.90
20845;DHT22;10583;49.084;8.646;2023-03-23T05:10:50;15.00;99.90
20845;DHT22;10583;49.084;8.646;2023-03-23T05:13:17;15.10;99.90
20845;DHT22;10583;49.084;8.646;2023-03-23T05:15:43;15.00;99.90
20845;DHT22;10583;49.084;8.646;2023-03-23T05:18:12;15.00;99.90
20845;DHT22;10583;49.084;8.646;2023-03-23T05:20:38;15.10;99.90
20845;DHT22;10583;49.084;8.646;2023-03-23T05:23:07;15.00;99.90
20845;DHT22;10583;49.084;8.646;2023-03-23T05:25:34;15.00;99.90
20845;DHT22;10583;49.084;8.646;2023-03-23T05:28:05;14.90;99.90
20845;DHT22;10583;49.084;8.646;2023-03-23T05:30:32;14.80;99.90
20845;DHT22;10583;49.084;8.646;2023-03-23T05:32:59;14.70;99.90
20845;DHT22;10583;49.084;8.646;2023-03-23T05:35:27;14.50;99.90
20845;DHT22;10583;49.084;8.646;2023-03-23T05:37:54;14.30;99.90
20845;DHT22;10583;49.084;8.646;2023-03-23T05:40:21;14.10;99.90
20845;DHT22;10583;49.084;8.646;2023-03-23T05:42:48;13.90;99.90
20845;DHT22;10583;49.084;8.646;2023-03-23T05:45:16;13.80;99.90
20845;DHT22;10583;49.084;8.646;2023-03-23T05:47:43;13.70;99.90
20845;DHT22;10583;49.084;8.646;2023-03-23T05:50:11;13.70;99.90
20845;DHT22;10583;49.084;8.646;2023-03-23T05:52:39;13.60;99.90
20845;DHT22;10583;49.084;8.646;2023-03-23T05:55:07;13.60;99.90
20845;DHT22;10583;49.084;8.646;2023-03-23T05:57:35;13.60;99.90
20845;DHT22;10583;49.084;8.646;2023-03-23T06:00:02;13.60;99.90
20845;DHT22;10583;49.084;8.646;2023-03-23T06:02:46;13.60;99.90
20845;DHT22;10583;49.084;8.646;2023-03-23T06:05:13;13.60;99.90
20845;DHT22;10583;49.084;8.646;2023-03-23T06:07:43;13.60;99.90
20845;DHT22;10583;49.084;8.646;2023-03-23T06:10:10;13.60;99.90
20845;DHT22;10583;49.084;8.646;2023-03-23T06:12:37;13.60;99.90
20845;DHT22;10583;49.084;8.646;2023-03-23T06:15:05;13.60;99.90
20845;DHT22;10583;49.084;8.646;2023-03-23T06:17:33;13.60;99.90
20845;DHT22;10583;49.084;8.646;2023-03-23T06:19:59;13.60;99.90
20845;DHT22;10583;49.084;8.646;2023-03-23T06:22:26;13.60;99.90
20845;DHT22;10583;49.084;8.646;2023-03-23T06:24:55;13.50;99.90
20845;DHT22;10583;49.084;8.646;2023-03-23T06:27:22;13.50;99.90
20845;DHT22;10583;49.084;8.646;2023-03-23T06:29:49;13.50;99.90
20845;DHT22;10583;49.084;8.646;2023-03-23T06:32:15;13.40;99.90
20845;DHT22;10583;49.084;8.646;2023-03-23T06:34:43;13.40;99.90
20845;DHT22;10583;49.084;8.646;2023-03-23T06:37:11;13.40;99.90
20845;DHT22;10583;49.084;8.646;2023-03-23T06:39:38;13.40;99.90
20845;DHT22;10583;49.084;8.646;2023-03-23T06:42:09;13.30;99.90
20845;DHT22;10583;49.084;8.646;2023-03-23T06:44:36;13.30;99.90
20845;DHT22;10583;49.084;8.646;2023-03-23T06:47:03;13.30;99.90
20845;DHT22;10583;49.084;8.646;2023-03-23T06:49:30;13.30;99.90
20845;DHT22;10583;49.084;8.646;2023-03-23T06:51:58;13.20;99.90
20845;DHT22;10583;49.084;8.646;2023-03-23T06:54:27;13.20;99.90
20845;DHT22;10583;49.084;8.646;2023-03-23T06:56:55;13.20;99.90
20845;DHT22;10583;49.084;8.646;2023-03-23T06:59:23;13.20;99.90
20845;DHT22;10583;49.084;8.646;2023-03-23T07:01:50;13.20;99.90
20845;DHT22;10583;49.084;8.646;2023-03-23T07:04:17;13.20;99.90
20845;DHT22;10583;49.084;8.646;2023-03-23T07:06:44;13.20;99.90
20845;DHT22;10583;49.084;8.646;2023-03-23T07:09:11;13.20;99.90
20845;DHT22;10583;49.084;8.646;2023-03-23T07:11:37;13.20;99.90
20845;DHT22;10583;49.084;8.646;2023-03-23T07:14:04;13.10;99.90
20845;DHT22;10583;49.084;8.646;2023-03-23T07:16:32;13.10;99.90
20845;DHT22;10583;49.084;8.646;2023-03-23T07:18:59;13.10;99.90
20845;DHT22;10583;49.084;8.646;2023-03-23T07:21:26;13.10;99.90
20845;DHT22;10583;49.084;8.646;2023-03-23T07:23:53;13.10;99.90
20845;DHT22;10583;49.084;8.646;2023-03-23T07:26:20;13.20;99.90
20845;DHT22;10583;49.084;8.646;2023-03-23T07:28:47;13.20;99.90
20845;DHT22;10583;49.084;8.646;2023-03-23T07:31:13;13.20;99.90
20845;DHT22;10583;49.084;8.646;2023-03-23T07:33:41;13.30;99.90
20845;DHT22;10583;49.084;8.646;2023-03-23T07:36:09;13.30;99.90
20845;DHT22;10583;49.084;8.646;2023-03-23T07:38:37;13.30;99.90
20845;DHT22;10583;49.084;8.646;2023-03-23T07:41:05;13.30;99.90
20845;DHT22;10583;49.084;8.646;2023-03-23T07:43:32;13.20;99.90
20845;DHT22;10583;49.084;8.646;2023-03-23T07:45:59;13.20;99.90
20845;DHT22;10583;49.084;8.646;2023-03-23T07:48:26;13.20;99.90
20845;DHT22;10583;49.084;8.646;2023-03-23T07:50:54;13.20;99.90
20845;DHT22;10583;49.084;8.646;2023-03-23T07:53:21;13.10;99.90
20845;DHT22;10583;49.084;8.646;2023-03-23T07:55:49;13.10;99.90
20845;DHT22;10583;49.084;8.646;2023-03-23T07:58:16;13.10;99.90
20845;DHT22;10583;49.084;8.646;2023-03-23T08:00:45;13.10;99.90
20845;DHT22;10583;49.084;8.646;2023-03-23T08:03:13;13.10;99.90
20845;DHT22;10583;49.084;8.646;2023-03-23T08:05:40;13.10;99.90
20845;DHT22;10583;49.084;8.646;2023-03-23T08:08:09;13.10;99.90
20845;DHT22;10583;49.084;8.646;2023-03-23T08:10:36;13.20;99.90
20845;DHT22;10583;49.084;8.646;2023-03-23T08:13:03;13.10;99.90
20845;DHT22;10583;49.084;8.646;2023-03-23T08:15:31;13.10;99.90
20845;DHT22;10583;49.084;8.646;2023-03-23T08:17:59;13.10;99.90
20845;DHT22;10583;49.084;8.646;2023-03-23T08:20:26;13.10;99.90
20845;DHT22;10583;49.084;8.646;2023-03-23T08:22:55;13.20;99.90
20845;DHT22;10583;49.084;8.646;2023-03-23T08:25:25;13.20;99.90
20845;DHT22;10583;49.084;8.646;2023-03-23T08:27:52;13.20;99.90
20845;DHT22;10583;49.084;8.646;2023-03-23T08:30:21;13.30;99.90
20845;DHT22;10583;49.084;8.646;2023-03-23T08:32:50;13.30;99.90
20845;DHT22;10583;49.084;8.646;2023-03-23T08:35:17;13.40;99.90
20845;DHT22;10583;49.084;8.646;2023-03-23T08:37:44;13.40;99.90
20845;DHT22;10583;49.084;8.646;2023-03-23T08:40:13;13.40;99.90
20845;DHT22;10583;49.084;8.646;2023-03-23T08:42:47;13.50;99.90
20845;DHT22;10583;49.084;8.646;2023-03-23T08:45:16;13.50;99.90
20845;DHT22;10583;49.084;8.646;2023-03-23T08:47:44;13.60;99.90
20845;DHT22;10583;49.084;8.646;2023-03-23T08:50:14;13.70;99.90
20845;DHT22;10583;49.084;8.646;2023-03-23T08:52:41;13.80;99.90
20845;DHT22;10583;49.084;8.646;2023-03-23T08:55:09;13.90;99.90
20845;DHT22;10583;49.084;8.646;2023-03-23T08:57:37;13.90;99.90
20845;DHT22;10583;49.084;8.646;2023-03-23T09:00:07;13.80;99.90
20845;DHT22;10583;49.084;8.646;2023-03-23T09:02:40;13.90;99.90
20845;DHT22;10583;49.084;8.646;2023-03-23T09:05:07;13.90;99.90
20845;DHT22;10583;49.084;8.646;2023-03-23T09:07:35;13.90;99.90
20845;DHT22;10583;49.084;8.646;2023-03-23T09:10:02;14.00;99.90
20845;DHT22;10583;49.084;8.646;2023-03-23T09:12:29;14.00;99.90
20845;DHT22;10583;49.084;8.646;2023-03-23T09:14:56;13.90;99.90
20845;DHT22;10583;49.084;8.646;2023-03-23T09:17:24;13.80;99.90
20845;DHT22;10583;49.084;8.646;2023-03-23T09:19:51;13.80;99.90
20845;DHT22;10583;49.084;8.646;2023-03-23T09:22:18;13.80;99.90
20845;DHT22;10583;49.084;8.646;2023-03-23T09:24:49;13.80;99.90
20845;DHT22;10583;49.084;8.646;2023-03-23T09:27:17;13.80;99.90
20845;DHT22;10583;49.084;8.646;2023-03-23T09:29:44;13.80;99.90
20845;DHT22;10583;49.084;8.646;2023-03-23T09:32:14;13.80;99.90
20845;DHT22;10583;49.084;8.646;2023-03-23T09:34:42;13.80;99.90
20845;DHT22;10583;49.084;8.646;2023-03-23T09:37:10;13.80;99.90
20845;DHT22;10583;49.084;8.646;2023-03-23T09:39:38;13.80;99.90
20845;DHT22;10583;49.084;8.646;2023-03-23T09:42:15;13.80;99.90
20845;DHT22;10583;49.084;8.646;2023-03-23T09:44:56;13.80;99.90
20845;DHT22;10583;49.084;8.646;2023-03-23T09:47:32;13.80;99.90
20845;DHT22;10583;49.084;8.646;2023-03-23T09:50:07;13.80;99.90
20845;DHT22;10583;49.084;8.646;2023-03-23T09:52:39;13.80;99.90
20845;DHT22;10583;49.084;8.646;2023-03-23T09:55:09;13.80;99.90
20845;DHT22;10583;49.084;8.646;2023-03-23T09:57:40;13.90;99.90
20845;DHT22;10583;49.084;8.646;2023-03-23T10:00:12;13.90;99.90
20845;DHT22;10583;49.084;8.646;2023-03-23T10:02:48;14.00;99.90
20845;DHT22;10583;49.084;8.646;2023-03-23T10:05:29;14.00;99.90
20845;DHT22;10583;49.084;8.646;2023-03-23T10:07:56;14.00;99.90
20845;DHT22;10583;49.084;8.646;2023-03-23T10:10:28;13.90;99.90
20845;DHT22;10583;49.084;8.646;2023-03-23T10:13:00;13.90;99.90
20845;DHT22;10583;49.084;8.646;2023-03-23T10:15:29;13.90;99.90
20845;DHT22;10583;49.084;8.646;2023-03-23T10:18:00;13.90;99.90
20845;DHT22;10583;49.084;8.646;2023-03-23T10:20:42;13.90;99.90
20845;DHT22;10583;49.084;8.646;2023-03-23T10:23:20;13.80;99.90
20845;DHT22;10583;49.084;8.646;2023-03-23T10:25:52;13.70;99.90
20845;DHT22;10583;49.084;8.646;2023-03-23T10:28:32;13.70;99.90
20845;DHT22;10583;49.084;8.646;2023-03-23T10:31:00;13.50;99.90
20845;DHT22;10583;49.084;8.646;2023-03-23T10:33:33;13.50;99.90
20845;DHT22;10583;49.084;8.646;2023-03-23T10:36:06;13.40;99.90
20845;DHT22;10583;49.084;8.646;2023-03-23T10:38:36;13.40;99.90
20845;DHT22;10583;49.084;8.646;2023-03-23T10:41:06;13.50;99.90
20845;DHT22;10583;49.084;8.646;2023-03-23T10:43:37;13.50;99.90
20845;DHT22;10583;49.084;8.646;2023-03-23T10:46:15;13.50;99.90
20845;DHT22;10583;49.084;8.646;2023-03-23T10:48:45;13.50;99.90
20845;DHT22;10583;49.084;8.646;2023-03-23T10:51:18;13.40;99.90
20845;DHT22;10583;49.084;8.646;2023-03-23T10:53:50;13.50;99.90
20845;DHT22;10583;49.084;8.646;2023-03-23T10:56:22;13.60;99.90
20845;DHT22;10583;49.084;8.646;2023-03-23T10:58:49;13.60;99.90
20845;DHT22;10583;49.084;8.646;2023-03-23T11:01:19;13.60;99.90
20845;DHT22;10583;49.084;8.646;2023-03-23T11:03:48;13.60;99.90
20845;DHT22;10583;49.084;8.646;2023-03-23T11:06:22;13.60;99.90
20845;DHT22;10583;49.084;8.646;2023-03-23T11:08:52;13.60;99.90
20845;DHT22;10583;49.084;8.646;2023-03-23T11:11:24;13.60;99.90
20845;DHT22;10583;49.084;8.646;2023-03-23T11:14:00;13.80;99.90
20845;DHT22;10583;49.084;8.646;2023-03-23T11:16:29;14.00;99.90
20845;DHT22;10583;49.084;8.646;2023-03-23T11:18:57;14.00;99.90
20845;DHT22;10583;49.084;8.646;2023-03-23T11:21:26;14.10;99.90
20845;DHT22;10583;49.084;8.646;2023-03-23T11:23:55;14.20;99.90
20845;DHT22;10583;49.084;8.646;2023-03-23T11:26:25;14.10;99.90
20845;DHT22;10583;49.084;8.646;2023-03-23T11:28:56;14.00;99.90
20845;DHT22;10583;49.084;8.646;2023-03-23T11:31:26;13.90;99.90
20845;DHT22;10583;49.084;8.646;2023-03-23T11:33:57;13.90;99.90
20845;DHT22;10583;49.084;8.646;2023-03-23T11:36:31;13.80;99.90
20845;DHT22;10583;49.084;8.646;2023-03-23T11:38:59;13.80;99.90
20845;DHT22;10583;49.084;8.646;2023-03-23T11:41:35;13.80;99.90
20845;DHT22;10583;49.084;8.646;2023-03-23T11:44:09;13.90;99.90
20845;DHT22;10583;49.084;8.646;2023-03-23T11:46:47;14.00;99.90
20845;DHT22;10583;49.084;8.646;2023-03-23T11:49:24;14.00;99.90
20845;DHT22;10583;49.084;8.646;2023-03-23T11:51:56;13.90;99.90
20845;DHT22;10583;49.084;8.646;2023-03-23T11:54:30;13.90;99.90
20845;DHT22;10583;49.084;8.646;2023-03-23T11:56:58;13.80;99.90
20845;DHT22;10583;49.084;8.646;2023-03-23T11:59:31;13.80;99.90
20845;DHT22;10583;49.084;8.646;2023-03-23T12:02:05;13.70;99.90
20845;DHT22;10583;49.084;8.646;2023-03-23T12:04:40;13.70;99.90
20845;DHT22;10583;49.084;8.646;2023-03-23T12:07:24;13.70;99.90
20845;DHT22;10583;49.084;8.646;2023-03-23T12:10:01;13.70;99.90
20845;DHT22;10583;49.084;8.646;2023-03-23T12:12:35;13.70;99.90
20845;DHT22;10583;49.084;8.646;2023-03-23T12:15:11;13.70;99.90
20845;DHT22;10583;49.084;8.646;2023-03-23T12:17:50;13.70;99.90
20845;DHT22;10583;49.084;8.646;2023-03-23T12:20:26;13.70;99.90
20845;DHT22;10583;49.084;8.646;2023-03-23T12:23:14;13.70;99.90
20845;DHT22;10583;49.084;8.646;2023-03-23T12:26:02;13.80;99.90
20845;DHT22;10583;49.084;8.646;2023-03-23T12:28:39;13.80;99.90
20845;DHT22;10583;49.084;8.646;2023-03-23T12:31:12;13.90;99.90
20845;DHT22;10583;49.084;8.646;2023-03-23T12:33:48;13.90;99.90
20845;DHT22;10583;49.084;8.646;2023-03-23T12:36:29;14.00;99.90
20845;DHT22;10583;49.084;8.646;2023-03-23T12:39:12;14.00;99.90
20845;DHT22;10583;49.084;8.646;2023-03-23T12:41:47;14.10;99.90
20845;DHT22;10583;49.084;8.646;2023-03-23T12:44:17;14.10;99.90
20845;DHT22;10583;49.084;8.646;2023-03-23T12:47:06;14.20;99.90
20845;DHT22;10583;49.084;8.646;2023-03-23T12:49:36;14.20;99.90
20845;DHT22;10583;49.084;8.646;2023-03-23T12:52:11;14.20;99.90
20845;DHT22;10583;49.084;8.646;2023-03-23T12:54:47;14.10;99.90
20845;DHT22;10583;49.084;8.646;2023-03-23T12:57:21;14.10;99.90
20845;DHT22;10583;49.084;8.646;2023-03-23T12:59:53;14.10;99.90
20845;DHT22;10583;49.084;8.646;2023-03-23T13:02:23;14.20;99.90
20845;DHT22;10583;49.084;8.646;2023-03-23T13:04:55;14.20;99.90
20845;DHT22;10583;49.084;8.646;2023-03-23T13:07:28;14.10;99.90
20845;DHT22;10583;49.084;8.646;2023-03-23T13:10:03;14.10;99.90
20845;DHT22;10583;49.084;8.646;2023-03-23T13:12:31;14.10;99.90
20845;DHT22;10583;49.084;8.646;2023-03-23T13:15:04;14.10;99.90
20845;DHT22;10583;49.084;8.646;2023-03-23T13:17:39;14.10;99.90
20845;DHT22;10583;49.084;8.646;2023-03-23T13:20:31;14.20;99.90
20845;DHT22;10583;49.084;8.646;2023-03-23T13:23:03;14.20;99.90
20845;DHT22;10583;49.084;8.646;2023-03-23T13:25:48;14.30;99.90
20845;DHT22;10583;49.084;8.646;2023-03-23T13:28:17;14.30;99.90
20845;DHT22;10583;49.084;8.646;2023-03-23T13:30:53;14.40;99.90
20845;DHT22;10583;49.084;8.646;2023-03-23T13:33:21;14.50;99.90
20845;DHT22;10583;49.084;8.646;2023-03-23T13:35:49;14.50;99.90
20845;DHT22;10583;49.084;8.646;2023-03-23T13:38:21;14.70;99.90
20845;DHT22;10583;49.084;8.646;2023-03-23T13:40:51;14.90;99.90
20845;DHT22;10583;49.084;8.646;2023-03-23T13:43:27;14.90;99.90
20845;DHT22;10583;49.084;8.646;2023-03-23T13:45:54;15.00;99.90
20845;DHT22;10583;49.084;8.646;2023-03-23T13:48:23;14.90;99.90
20845;DHT22;10583;49.084;8.646;2023-03-23T13:50:55;15.00;99.90
20845;DHT22;10583;49.084;8.646;2023-03-23T13:53:27;15.00;99.90
20845;DHT22;10583;49.084;8.646;2023-03-23T13:56:13;15.00;99.90
20845;DHT22;10583;49.084;8.646;2023-03-23T13:58:47;14.90;99.90
20845;DHT22;10583;49.084;8.646;2023-03-23T14:01:17;14.90;99.90
20845;DHT22;10583;49.084;8.646;2023-03-23T14:03:47;14.80;99.90
20845;DHT22;10583;49.084;8.646;2023-03-23T14:06:18;14.80;99.90
20845;DHT22;10583;49.084;8.646;2023-03-23T14:08:48;14.90;99.90
20845;DHT22;10583;49.084;8.646;2023-03-23T14:11:21;15.00;99.90
20845;DHT22;10583;49.084;8.646;2023-03-23T14:14:00;15.10;99.90
20845;DHT22;10583;49.084;8.646;2023-03-23T14:16:32;15.20;99.90
20845;DHT22;10583;49.084;8.646;2023-03-23T14:19:03;15.20;99.90
20845;DHT22;10583;49.084;8.646;2023-03-23T14:21:33;15.30;99.90
20845;DHT22;10583;49.084;8.646;2023-03-23T14:24:02;15.30;99.90
20845;DHT22;10583;49.084;8.646;2023-03-23T14:26:33;15.30;99.90
20845;DHT22;10583;49.084;8.646;2023-03-23T14:29:01;15.20;99.90
20845;DHT22;10583;49.084;8.646;2023-03-23T14:31:30;15.20;99.90
20845;DHT22;10583;49.084;8.646;2023-03-23T14:34:02;15.20;99.90
20845;DHT22;10583;49.084;8.646;2023-03-23T14:36:30;15.30;99.90
20845;DHT22;10583;49.084;8.646;2023-03-23T14:39:03;15.20;99.90
20845;DHT22;10583;49.084;8.646;2023-03-23T14:41:34;15.20;99.90
20845;DHT22;10583;49.084;8.646;2023-03-23T14:44:03;15.20;99.90
20845;DHT22;10583;49.084;8.646;2023-03-23T14:46:30;15.20;99.90
20845;DHT22;10583;49.084;8.646;2023-03-23T14:49:00;15.20;99.90
20845;DHT22;10583;49.084;8.646;2023-03-23T14:51:27;15.20;99.90
20845;DHT22;10583;49.084;8.646;2023-03-23T14:53:54;15.30;99.90
20845;DHT22;10583;49.084;8.646;2023-03-23T14:56:22;15.20;99.90
20845;DHT22;10583;49.084;8.646;2023-03-23T14:59:03;15.20;99.90
20845;DHT22;10583;49.084;8.646;2023-03-23T15:01:32;15.20;99.90
20845;DHT22;10583;49.084;8.646;2023-03-23T15:04:02;15.30;99.90
20845;DHT22;10583;49.084;8.646;2023-03-23T15:06:32;15.20;99.90
20845;DHT22;10583;49.084;8.646;2023-03-23T15:09:03;15.30;99.90
20845;DHT22;10583;49.084;8.646;2023-03-23T15:11:32;15.30;99.90
20845;DHT22;10583;49.084;8.646;2023-03-23T15:14:07;15.30;99.90
20845;DHT22;10583;49.084;8.646;2023-03-23T15:16:34;15.30;99.90
20845;DHT22;10583;49.084;8.646;2023-03-23T15:19:06;15.30;99.90
20845;DHT22;10583;49.084;8.646;2023-03-23T15:21:47;15.30;99.90
20845;DHT22;10583;49.084;8.646;2023-03-23T15:24:24;15.30;99.90
20845;DHT22;10583;49.084;8.646;2023-03-23T15:26:52;15.30;99.90
20845;DHT22;10583;49.084;8.646;2023-03-23T15:29:21;15.30;99.90
20845;DHT22;10583;49.084;8.646;2023-03-23T15:31:50;15.30;99.90
20845;DHT22;10583;49.084;8.646;2023-03-23T15:34:27;15.40;99.90
20845;DHT22;10583;49.084;8.646;2023-03-23T15:36:58;15.40;99.90
20845;DHT22;10583;49.084;8.646;2023-03-23T15:39:25;15.40;99.90
20845;DHT22;10583;49.084;8.646;2023-03-23T15:41:53;15.30;99.90
20845;DHT22;10583;49.084;8.646;2023-03-23T15:44:27;15.30;99.90
20845;DHT22;10583;49.084;8.646;2023-03-23T15:47:04;15.30;99.90
20845;DHT22;10583;49.084;8.646;2023-03-23T15:49:37;15.30;99.90
20845;DHT22;10583;49.084;8.646;2023-03-23T15:52:04;15.20;99.90
20845;DHT22;10583;49.084;8.646;2023-03-23T15:54:32;15.30;99.90